createdAt,value
2018-12-27T00:00:41.370Z,101593.89
2018-12-27T00:02:29.161Z,101592.52
2018-12-27T00:04:05.202Z,101600.39
2018-12-27T00:05:41.480Z,101588.72
2018-12-27T00:07:17.599Z,101592.72
2018-12-27T00:08:53.765Z,101593.57
2018-12-27T00:10:29.886Z,101591.62
2018-12-27T00:12:05.943Z,101589.37
2018-12-27T00:13:41.998Z,101591.72
2018-12-27T00:15:18.142Z,101587.16
2018-12-27T00:16:54.287Z,101592.52
2018-12-27T00:18:30.442Z,101590.45
2018-12-27T00:20:06.539Z,101593.73
2018-12-27T00:21:42.049Z,101582.85
2018-12-27T00:23:17.480Z,101584.69
2018-12-27T00:24:52.892Z,101585.79
2018-12-27T00:26:28.351Z,101579.36
2018-12-27T00:28:03.887Z,101584.98
2018-12-27T00:29:39.245Z,101578.39
2018-12-27T00:31:14.866Z,101580.78
2018-12-27T00:32:50.359Z,101582.83
2018-12-27T00:34:25.982Z,101582.16
2018-12-27T00:36:01.503Z,101580.95
2018-12-27T00:37:37.020Z,101583.95
2018-12-27T00:39:15.739Z,101580.91
2018-12-27T00:40:51.636Z,101583.52
2018-12-27T00:42:27.167Z,101573.78
2018-12-27T00:44:02.787Z,101580.69
2018-12-27T00:45:38.295Z,101582.25
2018-12-27T00:47:13.875Z,101575.75
2018-12-27T00:48:49.395Z,101578.09
2018-12-27T00:50:24.902Z,101581.97
2018-12-27T00:52:00.424Z,101582.59
2018-12-27T00:53:35.996Z,101579.15
2018-12-27T00:55:11.565Z,101580.00
2018-12-27T00:56:47.104Z,101586.46
2018-12-27T00:58:22.635Z,101575.16
2018-12-27T00:59:58.232Z,101580.80
2018-12-27T01:01:33.751Z,101581.23
2018-12-27T01:03:11.207Z,101585.69
2018-12-27T01:04:46.461Z,101585.97
2018-12-27T01:06:22.083Z,101583.48
2018-12-27T01:07:57.651Z,101581.14
2018-12-27T01:09:33.191Z,101573.30
2018-12-27T01:11:08.759Z,101576.88
2018-12-27T01:12:44.312Z,101574.14
2018-12-27T01:14:19.785Z,101577.77
2018-12-27T01:15:55.487Z,101576.51
2018-12-27T01:17:31.057Z,101580.05
2018-12-27T01:19:06.776Z,101574.08
2018-12-27T01:20:42.319Z,101582.61
2018-12-27T01:22:17.863Z,101584.36
2018-12-27T01:23:53.353Z,101577.81
2018-12-27T01:25:29.061Z,101574.73
2018-12-27T01:27:04.658Z,101577.62
2018-12-27T01:28:40.177Z,101578.98
2018-12-27T01:30:15.676Z,101575.67
2018-12-27T01:31:51.504Z,101575.52
2018-12-27T01:33:27.048Z,101576.40
2018-12-27T01:35:02.640Z,101571.90
2018-12-27T01:36:38.224Z,101579.20
2018-12-27T01:38:13.857Z,101573.97
2018-12-27T01:39:49.359Z,101566.78
2018-12-27T01:41:24.869Z,101568.91
2018-12-27T01:43:00.363Z,101565.94
2018-12-27T01:44:35.948Z,101572.32
2018-12-27T01:46:11.436Z,101572.83
2018-12-27T01:47:46.983Z,101576.48
2018-12-27T01:49:22.680Z,101572.89
2018-12-27T01:50:58.300Z,101576.59
2018-12-27T01:52:33.828Z,101572.05
2018-12-27T02:04:45.765Z,101561.47
2018-12-27T02:50:47.480Z,101521.22
2018-12-27T02:52:47.263Z,101517.73
2018-12-27T03:01:33.639Z,101509.44
2018-12-27T03:05:37.481Z,101505.47
2018-12-27T03:07:25.142Z,101506.13
2018-12-27T03:11:07.621Z,101499.78
2018-12-27T03:16:49.968Z,101494.10
2018-12-27T03:20:32.984Z,101485.94
2018-12-27T03:28:31.999Z,101478.77
2018-12-27T03:32:13.971Z,101471.73
2018-12-27T03:34:00.720Z,101464.25
2018-12-27T03:35:47.542Z,101471.20
2018-12-27T03:37:34.128Z,101463.69
2018-12-27T03:39:25.325Z,101462.07
2018-12-27T03:41:14.291Z,101461.91
2018-12-27T03:42:59.476Z,101464.91
2018-12-27T03:44:54.055Z,101462.07
2018-12-27T03:46:48.648Z,101456.09
2018-12-27T03:49:06.823Z,101459.12
2018-12-27T03:59:55.430Z,101444.33
2018-12-27T04:54:31.554Z,101394.13
2018-12-27T06:00:47.822Z,101433.05
2018-12-27T06:26:52.016Z,101439.75
2018-12-27T07:03:53.842Z,101413.00
2018-12-27T07:05:49.365Z,101404.59
2018-12-27T07:10:45.799Z,101412.38
